createdAt,value
2023-04-15T00:01:02.659Z,75.63
2023-04-15T00:03:35.089Z,76.16
2023-04-15T00:06:08.583Z,75.82
2023-04-15T00:08:40.499Z,76.22
2023-04-15T00:11:12.524Z,76.61
2023-04-15T00:13:44.265Z,76.55
2023-04-15T00:16:17.487Z,76.99
2023-04-15T00:18:49.407Z,76.31
2023-04-15T00:21:22.390Z,76.60
2023-04-15T00:23:54.231Z,76.64
2023-04-15T00:26:26.164Z,77.45
2023-04-15T00:28:58.417Z,77.65
2023-04-15T00:31:30.986Z,77.67
2023-04-15T00:34:03.630Z,77.93
2023-04-15T00:36:37.617Z,77.61
2023-04-15T00:39:09.518Z,78.13
2023-04-15T00:41:41.097Z,78.04
2023-04-15T00:44:12.751Z,77.94
2023-04-15T00:46:45.615Z,78.52
2023-04-15T00:49:18.338Z,78.28
2023-04-15T00:51:51.354Z,78.54
2023-04-15T00:54:23.296Z,78.21
2023-04-15T00:56:55.246Z,77.85
2023-04-15T00:59:27.283Z,77.28
2023-04-15T01:01:59.189Z,77.78
2023-04-15T01:04:32.044Z,77.61
2023-04-15T01:07:05.899Z,77.66
2023-04-15T01:09:36.671Z,78.32
2023-04-15T01:12:11.299Z,78.21
2023-04-15T01:14:43.172Z,78.81
2023-04-15T01:17:14.818Z,78.81
2023-04-15T01:19:46.671Z,78.60
2023-04-15T01:22:21.032Z,79.01
2023-04-15T01:25:04.693Z,78.92
2023-04-15T01:27:39.963Z,79.18
2023-04-15T01:30:14.591Z,79.08
2023-04-15T01:32:46.557Z,79.25
2023-04-15T01:35:18.468Z,79.25
2023-04-15T01:37:50.375Z,79.48
2023-04-15T01:40:22.769Z,79.02
2023-04-15T01:42:55.969Z,79.57
2023-04-15T01:45:27.582Z,79.71
2023-04-15T01:47:59.489Z,79.59
2023-04-15T01:50:31.467Z,80.35
2023-04-15T01:53:03.632Z,80.66
2023-04-15T01:55:35.545Z,80.72
2023-04-15T01:58:08.542Z,80.80
2023-04-15T02:00:40.536Z,81.17
2023-04-15T02:03:13.236Z,81.42
2023-04-15T02:05:46.830Z,81.68
2023-04-15T02:08:18.643Z,81.79
2023-04-15T02:10:50.803Z,81.19
2023-04-15T02:13:23.719Z,81.68
2023-04-15T02:15:56.360Z,81.32
2023-04-15T02:18:28.241Z,81.89
2023-04-15T02:20:59.943Z,82.31
2023-04-15T02:23:31.713Z,81.75
2023-04-15T02:26:03.514Z,81.96
2023-04-15T02:28:36.772Z,82.36
2023-04-15T02:31:10.873Z,82.75
2023-04-15T02:33:42.729Z,82.50
2023-04-15T02:36:14.616Z,83.29
2023-04-15T02:38:46.418Z,82.89
2023-04-15T02:41:18.696Z,82.51
2023-04-15T02:43:52.412Z,83.15
2023-04-15T02:46:24.327Z,82.76
2023-04-15T02:48:56.056Z,83.18
2023-04-15T02:51:31.465Z,83.07
2023-04-15T02:54:03.414Z,83.31
2023-04-15T02:56:35.436Z,83.31
2023-04-15T02:59:09.106Z,83.23
2023-04-15T03:01:41.177Z,83.51
2023-04-15T03:04:13.693Z,83.92
2023-04-15T03:06:45.356Z,83.45
2023-04-15T03:09:17.160Z,83.35
2023-04-15T03:11:49.207Z,83.77
2023-04-15T03:14:22.981Z,83.75
2023-04-15T03:16:54.788Z,83.75
2023-04-15T03:19:26.752Z,83.57
2023-04-15T03:21:58.601Z,84.14
2023-04-15T03:24:31.450Z,84.82
2023-04-15T03:27:03.365Z,84.24
2023-04-15T03:29:36.316Z,84.53
2023-04-15T03:32:08.008Z,84.60
2023-04-15T03:34:39.916Z,85.10
2023-04-15T03:37:11.861Z,84.71
2023-04-15T03:39:43.658Z,84.47
2023-04-15T03:42:15.639Z,84.88
2023-04-15T03:44:48.847Z,84.36
2023-04-15T03:47:20.966Z,84.89
2023-04-15T03:49:52.527Z,84.92
2023-04-15T03:52:24.543Z,85.11
2023-04-15T03:54:56.337Z,85.75
2023-04-15T03:57:28.179Z,85.66
2023-04-15T04:00:01.358Z,85.54
2023-04-15T04:02:33.485Z,85.61
2023-04-15T04:05:05.709Z,86.12
2023-04-15T04:07:37.547Z,86.92
2023-04-15T04:10:11.435Z,86.53
2023-04-15T04:12:43.432Z,86.51
2023-04-15T04:15:17.099Z,86.75
2023-04-15T04:17:49.007Z,87.26
2023-04-15T04:20:21.189Z,86.31
2023-04-15T04:22:53.112Z,86.99
2023-04-15T04:25:24.912Z,86.53
2023-04-15T04:27:56.793Z,87.17
2023-04-15T04:30:30.321Z,86.79
2023-04-15T04:33:02.087Z,87.33
2023-04-15T04:35:34.972Z,87.81
2023-04-15T04:38:06.813Z,87.52
2023-04-15T04:40:38.682Z,87.55
2023-04-15T04:43:10.694Z,88.36
2023-04-15T04:45:43.872Z,88.49
2023-04-15T04:48:15.723Z,88.52
2023-04-15T04:50:48.029Z,88.25
2023-04-15T04:53:20.486Z,88.64
2023-04-15T04:55:52.261Z,89.30
2023-04-15T04:58:24.136Z,89.12
2023-04-15T05:00:57.516Z,89.05
2023-04-15T05:03:29.940Z,89.05
2023-04-15T05:06:03.055Z,89.29
2023-04-15T05:08:34.937Z,89.40
2023-04-15T05:11:07.270Z,89.79
2023-04-15T05:13:39.600Z,89.31
2023-04-15T05:16:12.878Z,89.88
2023-04-15T05:18:44.789Z,89.78
2023-04-15T05:21:16.648Z,89.51
2023-04-15T05:23:48.478Z,89.75
2023-04-15T05:26:21.619Z,89.54
2023-04-15T05:28:53.791Z,90.04
2023-04-15T05:31:26.768Z,89.95
2023-04-15T05:33:59.166Z,90.18
2023-04-15T05:36:31.409Z,89.78
2023-04-15T05:39:03.148Z,90.61
2023-04-15T05:41:36.021Z,89.75
2023-04-15T05:44:07.709Z,89.49
2023-04-15T05:46:40.823Z,89.09
2023-04-15T05:49:12.510Z,89.08
2023-04-15T05:51:44.285Z,89.55
2023-04-15T05:54:17.719Z,89.48
2023-04-15T05:56:51.214Z,89.26
2023-04-15T05:59:23.034Z,89.59
2023-04-15T06:01:56.374Z,90.29
2023-04-15T06:04:28.147Z,90.35
2023-04-15T06:06:59.894Z,90.31
2023-04-15T06:09:31.767Z,90.65
2023-04-15T06:12:04.595Z,90.01
2023-04-15T06:14:36.234Z,90.50
2023-04-15T06:17:09.557Z,90.61
2023-04-15T06:19:41.410Z,91.01
2023-04-15T06:22:13.237Z,91.06
2023-04-15T06:24:45.282Z,90.95
2023-04-15T06:27:17.103Z,90.40
2023-04-15T06:29:48.799Z,91.56
2023-04-15T06:32:21.797Z,91.40
2023-04-15T06:34:53.742Z,91.20
2023-04-15T06:37:25.553Z,91.69
2023-04-15T06:39:57.402Z,91.93
2023-04-15T06:42:29.357Z,92.00
2023-04-15T06:45:01.384Z,91.89
2023-04-15T06:47:34.604Z,92.24
2023-04-15T06:50:06.606Z,92.20
2023-04-15T06:52:38.463Z,91.94
2023-04-15T06:55:12.351Z,91.50
2023-04-15T06:57:45.775Z,91.91
2023-04-15T07:00:18.761Z,92.32
2023-04-15T07:02:51.947Z,92.04
2023-04-15T07:05:23.697Z,92.56
2023-04-15T07:07:55.829Z,92.44
2023-04-15T07:10:27.435Z,91.99
2023-04-15T07:12:59.271Z,92.13
2023-04-15T07:15:31.193Z,92.02
2023-04-15T07:18:04.450Z,92.05
2023-04-15T07:20:36.639Z,92.35
2023-04-15T07:23:08.233Z,92.01
2023-04-15T07:25:40.292Z,91.88
2023-04-15T07:28:11.961Z,91.38
2023-04-15T07:30:43.886Z,92.11
2023-04-15T07:33:17.113Z,92.15
2023-04-15T07:35:49.044Z,92.87
2023-04-15T07:38:20.898Z,93.04
2023-04-15T07:40:52.737Z,93.16
2023-04-15T07:43:24.603Z,93.61
2023-04-15T07:45:56.648Z,93.69
2023-04-15T07:48:29.650Z,93.47
2023-04-15T07:51:03.458Z,93.29
2023-04-15T07:53:35.615Z,92.67
2023-04-15T07:56:10.219Z,92.58
2023-04-15T07:58:42.448Z,92.95
2023-04-15T08:01:16.050Z,93.62
2023-04-15T08:03:49.175Z,93.67
2023-04-15T08:06:20.845Z,93.39
2023-04-15T08:08:52.943Z,93.54
2023-04-15T08:11:24.914Z,93.26
2023-04-15T08:13:58.191Z,93.65
2023-04-15T08:16:30.580Z,93.83
2023-04-15T08:19:03.932Z,93.89
2023-04-15T08:21:35.900Z,93.97
2023-04-15T08:24:11.345Z,93.59
2023-04-15T08:26:43.201Z,94.07
2023-04-15T08:29:14.972Z,93.84
2023-04-15T08:31:47.668Z,93.67
2023-04-15T08:34:20.903Z,93.67
2023-04-15T08:36:52.566Z,93.13
2023-04-15T08:39:26.036Z,93.19
2023-04-15T08:42:05.606Z,94.15
2023-04-15T08:44:41.159Z,93.71
2023-04-15T08:47:18.881Z,93.88
2023-04-15T08:49:55.806Z,94.30
2023-04-15T08:52:28.820Z,94.01
2023-04-15T08:55:03.578Z,93.86
2023-04-15T08:57:36.957Z,94.47
2023-04-15T09:00:12.454Z,94.30
2023-04-15T09:02:44.408Z,93.95
2023-04-15T09:05:18.405Z,94.38
2023-04-15T09:07:51.962Z,94.35
2023-04-15T09:10:25.489Z,94.97
2023-04-15T09:12:58.900Z,95.04
2023-04-15T09:15:33.860Z,95.16
2023-04-15T09:18:05.810Z,94.90
2023-04-15T09:20:44.572Z,94.67
2023-04-15T09:23:19.710Z,95.01
2023-04-15T09:25:54.450Z,95.05
2023-04-15T09:28:31.901Z,95.30
2023-04-15T09:31:06.034Z,94.96
2023-04-15T09:33:54.935Z,95.41
2023-04-15T09:36:29.814Z,95.13
2023-04-15T09:39:03.876Z,95.45
2023-04-15T09:41:35.590Z,95.91
2023-04-15T09:44:07.661Z,95.85
2023-04-15T09:46:50.705Z,95.92
2023-04-15T09:49:23.330Z,95.74
2023-04-15T09:52:05.698Z,95.92
2023-04-15T09:54:42.334Z,95.46
2023-04-15T09:57:15.830Z,95.98
2023-04-15T09:59:47.506Z,96.12
2023-04-15T10:02:21.811Z,95.99
2023-04-15T10:04:55.369Z,96.75
2023-04-15T10:07:29.773Z,96.86
2023-04-15T10:10:05.304Z,96.39
2023-04-15T10:12:38.800Z,96.49
2023-04-15T10:15:18.228Z,96.22
2023-04-15T10:17:51.981Z,96.12
2023-04-15T10:20:26.193Z,96.57
2023-04-15T10:23:02.089Z,96.36
2023-04-15T10:25:35.324Z,96.21
2023-04-15T10:28:08.853Z,96.71
2023-04-15T10:30:43.350Z,96.20
2023-04-15T10:33:20.430Z,96.19
2023-04-15T10:35:54.862Z,96.79
2023-04-15T10:38:43.194Z,97.03
2023-04-15T10:41:20.854Z,96.98
2023-04-15T10:43:55.782Z,97.17
2023-04-15T10:46:40.028Z,96.79
2023-04-15T10:49:16.289Z,97.10
2023-04-15T10:51:58.343Z,97.13
2023-04-15T10:54:39.431Z,97.07
2023-04-15T10:57:18.388Z,97.43
2023-04-15T11:00:11.492Z,97.25
2023-04-15T11:02:53.382Z,96.95
2023-04-15T11:05:44.988Z,97.41
2023-04-15T11:08:17.163Z,97.04
2023-04-15T11:10:59.490Z,97.09
2023-04-15T11:13:36.210Z,97.09
2023-04-15T11:16:08.565Z,97.28
2023-04-15T11:18:40.232Z,97.32
2023-04-15T11:21:12.717Z,96.89
2023-04-15T11:23:46.912Z,97.01
2023-04-15T11:26:20.786Z,97.46
2023-04-15T11:28:52.753Z,97.58
2023-04-15T11:31:28.584Z,97.27
2023-04-15T11:34:02.848Z,97.43
2023-04-15T11:36:35.297Z,97.29
2023-04-15T11:39:09.922Z,97.48
2023-04-15T11:41:44.908Z,96.85
2023-04-15T11:44:22.641Z,97.43
2023-04-15T11:46:56.406Z,97.45
2023-04-15T11:49:33.904Z,97.44
2023-04-15T11:52:13.349Z,97.58
2023-04-15T11:54:45.203Z,97.90
2023-04-15T11:57:19.161Z,97.19
2023-04-15T11:59:50.800Z,97.36
2023-04-15T12:02:31.852Z,97.15
2023-04-15T12:05:07.698Z,97.37
2023-04-15T12:08:00.539Z,97.22
2023-04-15T12:10:34.561Z,96.59
2023-04-15T12:13:13.423Z,97.10
2023-04-15T12:15:46.864Z,97.02
2023-04-15T12:18:26.205Z,97.27
2023-04-15T12:20:58.285Z,96.90
2023-04-15T12:23:31.679Z,96.84
2023-04-15T12:26:08.146Z,97.17
2023-04-15T12:28:44.075Z,97.16
2023-04-15T12:31:18.048Z,96.77
2023-04-15T12:33:53.038Z,97.02
2023-04-15T12:36:24.888Z,97.04
2023-04-15T12:38:56.870Z,96.91
2023-04-15T12:41:28.489Z,96.02
2023-04-15T12:44:02.109Z,96.57
2023-04-15T12:46:34.899Z,96.43
2023-04-15T12:49:06.954Z,95.86
2023-04-15T12:51:38.765Z,95.84
2023-04-15T12:54:10.595Z,95.85
2023-04-15T12:56:42.308Z,95.46
2023-04-15T12:59:15.999Z,95.37
2023-04-15T13:01:48.115Z,95.17
2023-04-15T13:04:23.048Z,94.61
2023-04-15T13:06:54.849Z,95.06
2023-04-15T13:09:27.045Z,93.88
2023-04-15T13:11:59.205Z,94.63
2023-04-15T13:14:32.890Z,94.05
2023-04-15T13:17:10.033Z,94.26
2023-04-15T13:19:41.869Z,94.17
2023-04-15T13:22:15.408Z,93.51
2023-04-15T13:24:47.137Z,93.45
2023-04-15T13:27:18.938Z,92.96
2023-04-15T13:29:51.947Z,92.15
2023-04-15T13:32:23.794Z,91.81
2023-04-15T13:34:56.187Z,91.12
2023-04-15T13:37:32.607Z,90.16
2023-04-15T13:40:07.093Z,90.76
2023-04-15T13:42:37.386Z,90.46
2023-04-15T13:45:13.230Z,89.59
2023-04-15T13:47:45.508Z,89.94
2023-04-15T13:50:17.468Z,90.03
2023-04-15T13:52:49.270Z,90.23
2023-04-15T13:55:23.001Z,89.89
2023-04-15T13:57:58.224Z,89.80
2023-04-15T14:00:31.206Z,90.56
2023-04-15T14:03:03.375Z,89.61
2023-04-15T14:05:35.142Z,89.26
2023-04-15T14:08:08.493Z,88.77
2023-04-15T14:10:44.172Z,87.84
2023-04-15T14:13:16.130Z,87.43
2023-04-15T14:15:50.467Z,88.12
2023-04-15T14:18:22.389Z,87.42
2023-04-15T14:20:54.282Z,87.14
2023-04-15T14:23:26.237Z,88.00
2023-04-15T14:25:58.744Z,86.82
2023-04-15T14:28:30.600Z,87.44
2023-04-15T14:31:05.143Z,87.42
2023-04-15T14:33:37.266Z,87.87
2023-04-15T14:36:11.516Z,87.41
2023-04-15T14:38:46.129Z,87.82
2023-04-15T14:41:20.674Z,86.56
2023-04-15T14:43:52.229Z,86.63
2023-04-15T14:46:26.236Z,86.79
2023-04-15T14:48:58.215Z,86.83
2023-04-15T14:51:31.305Z,87.15
2023-04-15T14:54:03.083Z,87.02
2023-04-15T14:56:36.827Z,86.58
2023-04-15T14:59:08.469Z,86.47
2023-04-15T15:01:41.562Z,86.74
2023-04-15T15:04:15.192Z,86.65
2023-04-15T15:06:49.248Z,86.46
2023-04-15T15:09:23.634Z,85.95
2023-04-15T15:11:56.894Z,86.21
2023-04-15T15:14:28.551Z,85.99
2023-04-15T15:17:01.643Z,84.45
2023-04-15T15:19:33.883Z,85.60
2023-04-15T15:22:06.590Z,84.90
2023-04-15T15:24:38.463Z,84.72
2023-04-15T15:27:10.531Z,84.97
2023-04-15T15:29:42.754Z,84.62
2023-04-15T15:32:16.002Z,84.93
2023-04-15T15:34:47.882Z,85.50
2023-04-15T15:37:19.883Z,85.68
2023-04-15T15:39:52.866Z,84.57
2023-04-15T15:42:24.747Z,83.55
2023-04-15T15:44:56.589Z,83.45
2023-04-15T15:47:29.844Z,82.83
2023-04-15T15:50:05.596Z,81.25
2023-04-15T15:52:38.005Z,80.66
2023-04-15T15:55:11.199Z,81.13
2023-04-15T15:57:44.509Z,81.29
2023-04-15T16:00:23.185Z,81.04
2023-04-15T16:05:35.383Z,80.40
2023-04-15T16:08:09.145Z,80.94
2023-04-15T16:10:41.064Z,81.15
2023-04-15T16:13:14.649Z,81.24
2023-04-15T16:15:46.471Z,81.07
2023-04-15T16:18:19.533Z,81.78
2023-04-15T16:20:51.370Z,81.67
2023-04-15T16:23:23.786Z,81.34
2023-04-15T16:25:55.831Z,81.61
2023-04-15T16:28:27.529Z,81.78
2023-04-15T16:30:59.908Z,82.02
2023-04-15T16:33:33.276Z,82.40
2023-04-15T16:36:07.710Z,82.00
2023-04-15T16:38:39.561Z,82.38
2023-04-15T16:41:11.442Z,82.50
2023-04-15T16:43:43.391Z,81.80
2023-04-15T16:46:15.106Z,81.56
2023-04-15T16:48:48.082Z,82.24
2023-04-15T16:51:19.997Z,82.50
2023-04-15T16:53:51.923Z,82.44
2023-04-15T16:56:23.808Z,82.34
2023-04-15T16:58:55.768Z,82.55
2023-04-15T17:01:27.529Z,82.67
2023-04-15T17:04:00.715Z,82.14
2023-04-15T17:06:32.505Z,82.05
2023-04-15T17:09:04.682Z,81.42
2023-04-15T17:11:38.732Z,81.89
2023-04-15T17:14:11.002Z,81.19
2023-04-15T17:16:43.151Z,81.29
2023-04-15T17:19:16.352Z,80.82
2023-04-15T17:21:48.412Z,81.00
2023-04-15T17:24:20.519Z,81.09
2023-04-15T17:26:52.347Z,80.85
2023-04-15T17:29:24.419Z,80.91
2023-04-15T17:31:56.181Z,81.12
2023-04-15T17:34:50.796Z,81.20
2023-04-15T17:37:22.279Z,81.41
2023-04-15T17:39:54.163Z,81.36
2023-04-15T17:42:26.338Z,81.78
2023-04-15T17:44:58.286Z,81.55
2023-04-15T17:47:31.286Z,81.24
2023-04-15T17:50:04.351Z,81.41
2023-04-15T17:52:36.325Z,82.10
2023-04-15T17:55:08.541Z,81.81
2023-04-15T17:57:40.380Z,81.98
2023-04-15T18:00:17.509Z,81.91
2023-04-15T18:02:49.699Z,82.03
2023-04-15T18:05:23.035Z,82.65
2023-04-15T18:07:56.558Z,82.46
2023-04-15T18:10:28.428Z,82.64
2023-04-15T18:13:00.506Z,82.63
2023-04-15T18:15:32.504Z,82.90
2023-04-15T18:18:04.198Z,83.16
2023-04-15T18:20:37.969Z,82.57
2023-04-15T18:23:09.922Z,83.10
2023-04-15T18:25:43.404Z,83.21
2023-04-15T18:28:15.716Z,83.08
2023-04-15T18:30:47.326Z,82.97
2023-04-15T18:33:19.203Z,83.48
2023-04-15T18:35:52.203Z,83.19
2023-04-15T18:38:24.057Z,83.71
2023-04-15T18:40:56.034Z,83.24
2023-04-15T18:43:27.921Z,83.32
2023-04-15T18:45:59.942Z,83.39
2023-04-15T18:48:31.731Z,83.50
2023-04-15T18:51:04.982Z,83.81
2023-04-15T18:53:36.836Z,83.61
2023-04-15T18:56:08.700Z,83.99
2023-04-15T18:59:27.133Z,83.46
2023-04-15T19:01:32.373Z,83.75
2023-04-15T19:04:04.860Z,83.84
2023-04-15T19:06:37.958Z,84.08
2023-04-15T19:09:11.213Z,83.67
2023-04-15T19:11:43.583Z,84.11
2023-04-15T19:14:15.962Z,84.12
2023-04-15T19:16:47.876Z,83.62
2023-04-15T19:19:19.710Z,84.32
2023-04-15T19:21:53.621Z,84.32
2023-04-15T19:24:25.458Z,84.12
2023-04-15T19:26:57.350Z,84.10
2023-04-15T19:29:29.665Z,84.24
2023-04-15T19:32:01.506Z,84.25
2023-04-15T19:34:33.498Z,83.86
2023-04-15T19:37:06.700Z,83.32
2023-04-15T19:39:38.589Z,83.49
2023-04-15T19:42:10.481Z,83.34
2023-04-15T19:44:42.875Z,82.52
2023-04-15T19:47:14.586Z,82.79
2023-04-15T19:49:46.546Z,82.32
2023-04-15T19:52:19.879Z,81.97
2023-04-15T19:54:51.849Z,81.60
2023-04-15T19:57:23.659Z,81.67
2023-04-15T19:59:55.621Z,81.40
2023-04-15T20:02:27.632Z,81.37
2023-04-15T20:04:59.396Z,81.54
2023-04-15T20:07:33.486Z,81.65
2023-04-15T20:10:12.010Z,82.03
2023-04-15T20:12:51.563Z,81.25
2023-04-15T20:15:25.072Z,81.77
2023-04-15T20:17:56.941Z,81.87
2023-04-15T20:20:28.819Z,81.85
2023-04-15T20:23:01.938Z,81.72
2023-04-15T20:25:33.653Z,81.83
2023-04-15T20:28:05.455Z,81.51
2023-04-15T20:30:37.980Z,81.57
2023-04-15T20:33:10.455Z,81.66
2023-04-15T20:35:42.403Z,81.71
2023-04-15T20:38:16.317Z,81.60
2023-04-15T20:40:48.245Z,81.25
2023-04-15T20:43:21.390Z,81.82
2023-04-15T20:45:53.994Z,81.57
2023-04-15T20:48:26.116Z,81.61
2023-04-15T20:50:57.741Z,81.88
2023-04-15T20:53:30.688Z,82.03
2023-04-15T20:56:02.613Z,81.70
2023-04-15T20:58:34.431Z,81.62
2023-04-15T21:01:06.358Z,81.50
2023-04-15T21:03:38.318Z,81.53
2023-04-15T21:06:10.061Z,81.76
2023-04-15T21:08:43.025Z,81.74
2023-04-15T21:11:24.316Z,81.57
2023-04-15T21:14:09.140Z,81.67
2023-04-15T21:16:41.099Z,81.74
2023-04-15T21:19:12.842Z,82.09
2023-04-15T21:21:44.758Z,82.03
2023-04-15T21:24:17.753Z,82.25
2023-04-15T21:26:49.645Z,82.31
2023-04-15T21:29:21.538Z,82.57
2023-04-15T21:31:53.386Z,82.62
2023-04-15T21:34:25.220Z,82.54
2023-04-15T21:36:57.206Z,82.96
2023-04-15T21:39:30.406Z,82.90
2023-04-15T21:42:02.770Z,82.72
2023-04-15T21:44:34.378Z,83.09
2023-04-15T21:47:06.459Z,82.91
2023-04-15T21:49:38.025Z,82.72
2023-04-15T21:52:09.768Z,83.26
2023-04-15T21:54:42.690Z,83.10
2023-04-15T21:57:14.731Z,83.32
2023-04-15T21:59:46.511Z,83.44
2023-04-15T22:02:18.463Z,83.56
2023-04-15T22:04:50.818Z,83.64
2023-04-15T22:07:22.750Z,83.38
2023-04-15T22:09:56.419Z,83.55
2023-04-15T22:12:28.265Z,83.36
2023-04-15T22:15:00.634Z,83.86
2023-04-15T22:17:32.488Z,84.00
2023-04-15T22:20:04.381Z,83.74
2023-04-15T22:22:43.489Z,84.01
2023-04-15T22:25:17.844Z,84.09
2023-04-15T22:27:49.985Z,84.18
2023-04-15T22:30:21.644Z,84.22
2023-04-15T22:32:53.513Z,84.39
2023-04-15T22:35:25.336Z,84.33
2023-04-15T22:37:57.629Z,84.20
2023-04-15T22:40:31.248Z,84.32
2023-04-15T22:43:03.180Z,84.34
2023-04-15T22:45:35.973Z,84.30
2023-04-15T22:48:07.535Z,84.47
2023-04-15T22:50:42.293Z,84.38
2023-04-15T22:53:15.924Z,84.38
2023-04-15T22:55:53.856Z,84.67
2023-04-15T22:58:25.571Z,84.81
2023-04-15T23:00:57.482Z,84.62
2023-04-15T23:03:29.156Z,84.84
2023-04-15T23:06:00.910Z,85.11
2023-04-15T23:08:32.592Z,85.00
2023-04-15T23:11:05.936Z,84.74
2023-04-15T23:13:37.644Z,85.01
2023-04-15T23:16:11.120Z,84.81
2023-04-15T23:18:42.960Z,85.13
2023-04-15T23:21:14.786Z,85.14
2023-04-15T23:23:46.646Z,84.84
2023-04-15T23:26:19.646Z,85.12
2023-04-15T23:28:51.463Z,85.79
2023-04-15T23:31:23.293Z,85.53
2023-04-15T23:33:55.222Z,85.64
2023-04-15T23:36:27.215Z,85.51
2023-04-15T23:38:59.059Z,85.58
2023-04-15T23:41:32.254Z,85.08
2023-04-15T23:44:04.105Z,85.18
2023-04-15T23:46:36.123Z,85.02
2023-04-15T23:49:08.412Z,85.76
2023-04-15T23:51:40.192Z,85.47
2023-04-15T23:54:11.955Z,85.65
2023-04-15T23:56:46.123Z,85.81
2023-04-15T23:59:17.768Z,85.60
